Colombo, Sri Lanka

8:33 AM IST on December 27, 2014 (GMT +0530)
Bandaranaike International | Change Station
CLOSE
Current Station
Airport
Location: Katunayake,
Elevation: 26 ft
Nearby Weather Stations

Elev 26 ft 7.18 °N, 79.88 °E | Updated 53 minutes ago

Overcast
Overcast
73 °F
Feels Like 73 °F
N
8
Wind Variable Wind from NNE

Today
High -- | Low -- °F
--% Chance of Precip.
Yesterday
High -- | Low -- °F
Precip. -- in
6:19 AM 6:03 PM
Waxing Crescent, 32% visible
Pressure 29.86 in
Visibility 5.0 miles
Clouds Few 1600 ft
Overcast 9000 ft
Dew Point 70 °F
Humidity 88%
Rainfall 0.00 in
Snow Depth Not available.
UV 0 out of 12
Pollen Not available.
Air Quality Not available.
Flu Activity Not available.
METAR VCBI 270210Z 03007KT 8000 FEW016 OVC090 23/21 Q1011 NOSIG

More Conditions Fewer Conditions

Pressure 29.86 in
Visibility 5.0 miles
Clouds Few 1600 ft
Overcast 9000 ft
Dew Point 70 °F
Humidity 88%
Rainfall 0.00 in
Snow Depth Not available.
UV 0 out of 12
Pollen Not available.
Air Quality Not available.
Flu Activity Not available.
METAR VCBI 270210Z 03007KT 8000 FEW016 OVC090 23/21 Q1011 NOSIG

More Conditions Fewer Conditions

10-Day Weather Forecast

Almanac

Astronomy

Dec. 27, 2014 Rise Set
Actual Time
Civil Twilight
Nautical Twilight
Astronomical Twilight
Moon
Length of Visible Light
Length of Day
Tomorrow will be .
, % of the Moon is Illuminated

Today's Extremes

Country Highs Country Lows

Community

WunderPhotos

Upload Photos

1,780,830 photos uploaded!

WunderBlogs® & News

Nearby

Air Quality

  Air Quality AQ Index Pollutant
Not available.

Snow Depth

Station Depth Elevation

Earthquake Activity

City Distance Mag. Time & Date
Minimum magnitude displayed is 2.5.

Coastal Water Temperatures

Place Temperature

Nearby Weather Stations